KSNS/SNS METAR and TAF weather

Enter ICAO airport designator
Station Type Date Time Source
KSNS METAR 2020/09/24 10:53 UTC NOAA

KSNS 241053Z AUTO 07003KT 10SM CLR 14/12 A3004 RMK AO2 SLP181 T01390117


Station Type Date Time Source
KSNS Decoded METAR 2020/09/24 10:53 UTC NOAA

SALINAS MUNICIPAL AIRPORT, CA, United States (KSNS) 36-40N 121-36W 30M
Sep 24, 2020 - 06:53 AM EDT / 2020.09.24 1053 UTC
Wind: from the ENE (070 degrees) at 3 MPH (3 KT):0
Visibility: 10 mile(s):0
Sky conditions: clear
Temperature: 57.0 F (13.9 C)
Dew Point: 53.1 F (11.7 C)
Relative Humidity: 86%
Pressure (altimeter): 30.04 in. Hg (1017 hPa)
ob: KSNS 241053Z AUTO 07003KT 10SM CLR 14/12 A3004 RMK AO2 SLP181 T01390117
cycle: 11

Station Type Date Time Source
KSNS TAF 2020/09/24 06:33 UTC NOAA

TAF KSNS 240531Z 2406/2506 34008KT P6SM FEW010
TEMPO 2406/2409 SCT008
FM240900 VRB03KT P6SM SCT005
TEMPO 2412/2416 2SM -DZ BR OVC005
FM241600 VRB03KT 6SM BR OVC008
FM241800 28008KT P6SM SCT014
FM242100 29014KT P6SM FEW020
FM250300 29010KT P6SM SCT012

Example: see airport list